createdAt,value
2018-09-10T00:00:17.213Z,2.97
2018-09-10T00:03:11.189Z,2.83
2018-09-10T00:06:18.771Z,2.93
2018-09-10T00:08:49.937Z,3.33
2018-09-10T00:11:33.149Z,3.53
2018-09-10T00:14:01.711Z,3.20
2018-09-10T00:16:30.293Z,3.17
2018-09-10T00:18:58.815Z,3.27
2018-09-10T00:21:27.388Z,3.43
2018-09-10T00:23:55.862Z,3.47
2018-09-10T00:26:24.428Z,3.20
2018-09-10T00:29:24.382Z,3.33
2018-09-10T00:31:52.830Z,3.43
2018-09-10T00:34:33.557Z,3.40
2018-09-10T00:37:02.007Z,2.97
2018-09-10T00:39:44.976Z,3.07
2018-09-10T00:42:13.492Z,3.10
2018-09-10T00:44:42.062Z,3.63
2018-09-10T00:47:10.434Z,3.13
2018-09-10T00:49:38.965Z,3.40
2018-09-10T00:52:07.480Z,3.30
2018-09-10T00:54:35.909Z,3.30
2018-09-10T00:57:04.437Z,2.93
2018-09-10T00:59:32.832Z,3.60
2018-09-10T01:02:01.454Z,3.43
2018-09-10T01:04:29.956Z,3.80
2018-09-10T01:06:58.420Z,3.20
2018-09-10T01:09:26.914Z,3.00
2018-09-10T01:11:55.382Z,3.50
2018-09-10T01:14:49.943Z,3.50
2018-09-10T01:17:18.471Z,3.60
2018-09-10T01:19:46.933Z,3.70
2018-09-10T01:22:15.413Z,3.53
2018-09-10T01:24:43.962Z,3.70
2018-09-10T01:27:12.494Z,3.23
2018-09-10T01:29:41.016Z,3.17
2018-09-10T01:32:09.539Z,3.37
2018-09-10T01:34:43.204Z,3.60
2018-09-10T01:37:11.633Z,3.60
2018-09-10T01:40:04.659Z,3.00
2018-09-10T01:42:33.533Z,3.40
2018-09-10T01:45:02.521Z,3.53
2018-09-10T01:47:31.101Z,4.20
2018-09-10T01:49:59.634Z,3.67
2018-09-10T01:52:39.762Z,3.00
2018-09-10T01:55:22.404Z,4.10
2018-09-10T01:57:50.996Z,3.63
2018-09-10T02:00:19.473Z,3.50
2018-09-10T02:02:48.012Z,3.80
2018-09-10T02:05:16.860Z,3.47
2018-09-10T02:07:45.292Z,4.23
2018-09-10T02:10:13.811Z,4.10
2018-09-10T02:12:42.525Z,4.30
2018-09-10T02:15:10.975Z,4.37
2018-09-10T02:18:20.405Z,3.43
2018-09-10T02:20:49.015Z,3.50
2018-09-10T02:23:17.815Z,3.50
2018-09-10T02:25:46.392Z,4.50
2018-09-10T02:28:14.798Z,3.67
2018-09-10T02:30:43.245Z,4.07
2018-09-10T02:33:11.738Z,3.90
2018-09-10T02:35:40.213Z,3.53
2018-09-10T02:38:08.712Z,4.17
2018-09-10T02:40:37.221Z,4.03
2018-09-10T02:43:37.550Z,4.17
2018-09-10T02:46:06.400Z,4.57
2018-09-10T02:48:34.943Z,5.53
2018-09-10T02:51:03.463Z,7.27
2018-09-10T02:53:31.941Z,8.00
2018-09-10T02:56:01.561Z,8.47
2018-09-10T02:58:30.053Z,8.47
2018-09-10T03:00:58.716Z,7.73
2018-09-10T03:03:27.160Z,7.47
2018-09-10T03:05:55.734Z,8.40
2018-09-10T03:08:24.290Z,8.60
2018-09-10T03:10:52.991Z,9.10
2018-09-10T03:13:21.427Z,9.57
2018-09-10T03:15:49.945Z,8.10
2018-09-10T03:18:18.501Z,9.43
2018-09-10T03:20:46.926Z,9.27
2018-09-10T03:23:15.491Z,8.97
2018-09-10T03:25:43.953Z,8.90
2018-09-10T03:28:16.936Z,9.73
2018-09-10T03:30:45.722Z,9.37
2018-09-10T03:33:14.239Z,10.27
2018-09-10T03:35:42.905Z,10.20
2018-09-10T03:38:11.371Z,10.37
2018-09-10T03:40:39.972Z,10.77
2018-09-10T03:43:08.395Z,10.27
2018-09-10T03:45:36.964Z,9.90
2018-09-10T03:48:05.504Z,11.03
2018-09-10T03:50:34.087Z,10.73
2018-09-10T03:53:02.623Z,11.10
2018-09-10T03:55:31.091Z,11.33
2018-09-10T03:57:59.621Z,11.67
2018-09-10T04:00:28.139Z,11.37
2018-09-10T04:02:56.612Z,11.50
2018-09-10T04:05:25.207Z,11.40
2018-09-10T04:08:30.472Z,12.43
2018-09-10T04:10:58.888Z,11.80
2018-09-10T04:13:27.492Z,11.93
2018-09-10T04:16:02.279Z,12.60
2018-09-10T04:18:30.840Z,13.33
2018-09-10T04:20:59.491Z,13.43
2018-09-10T04:23:27.916Z,13.23
2018-09-10T04:25:56.635Z,13.93
2018-09-10T04:28:25.154Z,13.63
2018-09-10T04:30:53.621Z,14.33
2018-09-10T04:33:22.179Z,13.47
2018-09-10T04:35:50.692Z,14.33
2018-09-10T04:38:19.417Z,13.67
2018-09-10T04:40:47.869Z,14.83
2018-09-10T04:43:16.411Z,15.10
2018-09-10T04:45:44.924Z,14.17
2018-09-10T04:48:13.512Z,14.57
2018-09-10T04:50:42.059Z,14.70
2018-09-10T04:53:10.486Z,14.57
2018-09-10T04:55:38.938Z,14.27
2018-09-10T04:58:15.962Z,14.60
2018-09-10T05:00:44.422Z,13.23
2018-09-10T05:03:12.924Z,14.80
2018-09-10T05:05:41.400Z,14.67
2018-09-10T05:08:09.922Z,14.77
2018-09-10T05:10:38.449Z,15.00
2018-09-10T05:13:07.261Z,14.50
2018-09-10T05:15:36.623Z,14.23
2018-09-10T05:18:05.143Z,14.57
2018-09-10T05:20:33.624Z,14.67
2018-09-10T05:23:02.236Z,13.73
2018-09-10T05:25:30.684Z,14.17
2018-09-10T05:28:00.334Z,14.97
2018-09-10T05:30:28.884Z,13.27
2018-09-10T05:33:04.828Z,14.97
2018-09-10T05:35:33.308Z,14.17
2018-09-10T05:38:01.784Z,14.03
2018-09-10T05:40:35.815Z,14.93
2018-09-10T05:43:04.386Z,13.83
2018-09-10T05:45:33.014Z,16.07
2018-09-10T05:48:01.587Z,13.30
2018-09-10T05:50:30.070Z,13.77
2018-09-10T05:52:58.633Z,13.83
2018-09-10T05:55:27.220Z,14.87
2018-09-10T05:57:55.723Z,13.70
2018-09-10T06:00:24.180Z,14.23
2018-09-10T06:02:52.617Z,14.57
2018-09-10T06:05:21.082Z,14.80
2018-09-10T06:07:49.633Z,14.67
2018-09-10T06:10:18.202Z,15.10
2018-09-10T06:12:46.673Z,14.93
2018-09-10T06:15:15.290Z,14.50
2018-09-10T06:17:43.839Z,15.70
2018-09-10T06:20:12.323Z,14.70
2018-09-10T06:22:40.824Z,14.90
2018-09-10T06:25:09.339Z,14.23
2018-09-10T06:27:37.770Z,14.67
2018-09-10T06:30:06.504Z,14.30
2018-09-10T06:32:35.050Z,14.47
2018-09-10T06:35:03.570Z,14.40
2018-09-10T06:37:32.225Z,13.87
2018-09-10T06:40:00.801Z,14.63
2018-09-10T06:42:29.250Z,14.53
2018-09-10T06:45:24.434Z,14.63
2018-09-10T06:47:53.031Z,14.93
2018-09-10T06:50:21.457Z,14.23
2018-09-10T06:52:49.925Z,14.37
2018-09-10T06:55:18.395Z,15.07
2018-09-10T06:57:46.964Z,16.23
2018-09-10T07:00:15.693Z,14.30
2018-09-10T07:02:44.272Z,15.23
2018-09-10T07:05:12.784Z,15.93
2018-09-10T07:07:41.447Z,15.07
2018-09-10T07:10:10.257Z,16.27
2018-09-10T07:13:00.061Z,15.40
2018-09-10T07:15:28.892Z,15.90
2018-09-10T07:17:57.383Z,13.60
2018-09-10T07:20:25.866Z,14.93
2018-09-10T07:22:54.541Z,15.27
2018-09-10T07:25:23.041Z,15.00
2018-09-10T07:27:51.697Z,15.00
2018-09-10T07:30:20.448Z,14.50
2018-09-10T07:32:49.000Z,15.03
2018-09-10T07:35:17.526Z,14.03
2018-09-10T07:37:46.162Z,14.70
2018-09-10T07:40:14.804Z,14.30
2018-09-10T07:42:43.333Z,14.50
2018-09-10T07:45:12.003Z,14.63
2018-09-10T07:47:40.447Z,15.40
2018-09-10T07:50:09.081Z,14.13
2018-09-10T07:52:37.689Z,14.10
2018-09-10T07:55:06.302Z,15.43
2018-09-10T07:57:34.824Z,15.07
2018-09-10T08:00:03.886Z,16.07
2018-09-10T08:02:32.450Z,15.23
2018-09-10T08:05:01.197Z,15.07
2018-09-10T08:07:29.685Z,14.43
2018-09-10T08:09:58.176Z,14.23
2018-09-10T08:12:26.629Z,14.17
2018-09-10T08:14:55.112Z,14.93
2018-09-10T08:17:25.772Z,15.33
2018-09-10T08:19:54.234Z,14.57
2018-09-10T08:22:22.740Z,15.50
2018-09-10T08:24:51.185Z,13.50
2018-09-10T08:27:19.745Z,14.63
2018-09-10T08:29:48.313Z,14.37
2018-09-10T08:32:16.852Z,13.77
2018-09-10T08:34:45.324Z,14.27
2018-09-10T08:37:13.807Z,13.87
2018-09-10T08:39:42.350Z,13.90
2018-09-10T08:42:10.881Z,12.87
2018-09-10T08:44:39.371Z,14.03
2018-09-10T08:47:07.885Z,12.57
2018-09-10T08:49:36.317Z,11.53
2018-09-10T08:52:28.066Z,11.63
2018-09-10T08:54:56.826Z,12.30
2018-09-10T08:57:25.230Z,12.00
2018-09-10T08:59:53.665Z,10.93
2018-09-10T09:02:22.187Z,11.70
2018-09-10T09:04:50.672Z,11.27
2018-09-10T09:07:19.939Z,11.73
2018-09-10T09:09:48.356Z,11.67
2018-09-10T09:12:16.981Z,11.17
2018-09-10T09:14:45.514Z,10.43
2018-09-10T09:17:14.047Z,9.87
2018-09-10T09:19:42.671Z,10.77
2018-09-10T09:22:11.255Z,11.47
2018-09-10T09:24:39.683Z,10.63
2018-09-10T09:27:08.130Z,11.00
2018-09-10T09:29:51.507Z,10.80
2018-09-10T09:32:20.047Z,11.53
2018-09-10T09:34:53.869Z,11.27
2018-09-10T09:37:27.695Z,9.43
2018-09-10T09:40:01.575Z,11.47
2018-09-10T09:42:35.565Z,10.17
2018-09-10T09:45:09.609Z,9.63
2018-09-10T09:47:38.364Z,9.97
2018-09-10T09:50:07.158Z,10.20
2018-09-10T09:52:35.736Z,9.27
2018-09-10T09:55:04.244Z,9.83
2018-09-10T09:57:32.717Z,9.33
2018-09-10T10:00:35.188Z,9.80
2018-09-10T10:03:09.040Z,8.70
2018-09-10T10:05:37.774Z,9.33
2018-09-10T10:08:06.370Z,8.63
2018-09-10T10:10:35.575Z,7.50
2018-09-10T10:13:04.047Z,6.97
2018-09-10T10:15:32.547Z,5.70
2018-09-10T10:18:08.855Z,6.90
2018-09-10T10:20:37.377Z,6.93
2018-09-10T10:23:05.940Z,7.47
2018-09-10T10:25:34.456Z,6.80
2018-09-10T10:28:02.957Z,5.60
2018-09-10T10:30:31.389Z,6.47
2018-09-10T10:33:22.021Z,7.03
2018-09-10T10:35:50.478Z,6.03
2018-09-10T10:38:26.123Z,6.27
2018-09-10T10:40:54.553Z,7.40
2018-09-10T10:43:23.078Z,6.00
2018-09-10T10:45:51.880Z,6.73
2018-09-10T10:48:20.316Z,6.20
2018-09-10T10:50:48.945Z,6.70
2018-09-10T10:53:17.473Z,6.50
2018-09-10T10:55:46.040Z,6.23
2018-09-10T10:58:14.871Z,5.70
2018-09-10T11:04:04.906Z,6.00
2018-09-10T11:06:33.352Z,4.73
2018-09-10T11:09:01.894Z,4.87
2018-09-10T11:11:30.956Z,5.17
2018-09-10T11:13:59.477Z,4.77
2018-09-10T11:16:27.988Z,5.77
2018-09-10T11:18:56.507Z,5.10
2018-09-10T11:21:25.286Z,4.60
2018-09-10T11:23:54.935Z,5.80
2018-09-10T11:26:23.397Z,5.60
2018-09-10T11:28:51.954Z,4.93
2018-09-10T11:31:22.640Z,5.63
2018-09-10T11:33:51.072Z,5.93
2018-09-10T11:36:19.572Z,4.97
2018-09-10T11:38:48.053Z,5.30
2018-09-10T11:41:16.550Z,5.30
2018-09-10T11:43:45.019Z,4.80
2018-09-10T11:46:13.507Z,4.93
2018-09-10T11:48:42.020Z,4.57
2018-09-10T11:51:10.450Z,3.10
2018-09-10T11:53:39.033Z,3.77
2018-09-10T11:56:07.566Z,3.70
2018-09-10T11:58:36.020Z,3.80
2018-09-10T12:01:05.207Z,3.27
2018-09-10T12:03:47.445Z,3.40
2018-09-10T12:06:15.894Z,2.70
2018-09-10T12:08:44.374Z,2.97
2018-09-10T12:11:12.921Z,3.30
2018-09-10T12:13:41.567Z,3.07
2018-09-10T12:16:10.145Z,3.87
2018-09-10T12:18:38.641Z,3.10
2018-09-10T12:21:07.394Z,3.20
2018-09-10T12:23:36.786Z,2.47
2018-09-10T12:26:06.326Z,3.10
2018-09-10T12:28:52.429Z,2.87
2018-09-10T12:31:20.994Z,3.07
2018-09-10T12:33:49.481Z,2.83
2018-09-10T12:36:17.969Z,2.77
2018-09-10T12:38:46.586Z,2.83
2018-09-10T12:41:15.121Z,3.17
2018-09-10T12:43:43.687Z,2.90
2018-09-10T12:46:12.172Z,3.13
2018-09-10T12:48:40.764Z,3.23
2018-09-10T12:51:09.193Z,2.87
2018-09-10T12:53:37.738Z,2.80
2018-09-10T12:56:06.696Z,2.77
2018-09-10T12:58:35.395Z,2.67
2018-09-10T13:01:19.221Z,3.10
2018-09-10T13:03:47.623Z,2.80
2018-09-10T13:06:16.241Z,3.00
2018-09-10T13:08:44.726Z,2.63
2018-09-10T13:11:13.180Z,3.17
2018-09-10T13:13:41.677Z,2.93
2018-09-10T13:16:10.735Z,3.20
2018-09-10T13:18:39.180Z,3.10
2018-09-10T13:21:07.733Z,2.90
2018-09-10T13:23:36.227Z,2.70
2018-09-10T13:26:04.782Z,3.17
2018-09-10T13:28:33.231Z,3.83
2018-09-10T13:31:01.741Z,2.50
2018-09-10T13:33:30.357Z,3.10
2018-09-10T13:35:59.397Z,3.10
2018-09-10T13:38:27.929Z,3.23
2018-09-10T13:40:56.452Z,2.83
2018-09-10T13:43:24.932Z,3.60
2018-09-10T13:46:10.518Z,3.63
2018-09-10T13:48:41.391Z,3.63
2018-09-10T13:51:16.636Z,3.40
2018-09-10T13:53:46.219Z,3.47
2018-09-10T13:56:17.065Z,2.90
2018-09-10T13:58:48.466Z,3.37
2018-09-10T14:01:19.490Z,3.57
2018-09-10T14:03:50.530Z,3.27
2018-09-10T14:06:21.498Z,3.13
2018-09-10T14:08:56.731Z,3.87
2018-09-10T14:11:25.458Z,2.70
2018-09-10T14:13:54.554Z,3.23
2018-09-10T14:16:23.066Z,3.10
2018-09-10T14:18:51.652Z,3.27
2018-09-10T14:21:20.120Z,3.57
2018-09-10T14:23:48.609Z,3.20
2018-09-10T14:26:17.210Z,3.20
2018-09-10T14:28:45.692Z,2.83
2018-09-10T14:31:14.311Z,3.23
2018-09-10T14:33:42.860Z,4.17
2018-09-10T14:36:11.401Z,3.23
2018-09-10T14:38:39.907Z,3.43
2018-09-10T14:41:08.474Z,3.00
2018-09-10T14:43:37.089Z,3.10
2018-09-10T14:46:05.549Z,3.10
2018-09-10T14:48:34.027Z,3.37
2018-09-10T14:51:02.569Z,3.10
2018-09-10T14:53:31.283Z,4.10
2018-09-10T14:56:00.080Z,3.60
2018-09-10T14:58:28.669Z,3.40
2018-09-10T15:00:57.109Z,3.20
2018-09-10T15:03:25.657Z,3.47
2018-09-10T15:05:54.221Z,3.20
2018-09-10T15:08:22.747Z,3.60
2018-09-10T15:10:51.902Z,3.17
2018-09-10T15:13:20.396Z,2.97
2018-09-10T15:15:49.902Z,3.10
2018-09-10T15:18:18.511Z,3.00
2018-09-10T15:20:46.926Z,2.80
2018-09-10T15:23:15.686Z,3.03
2018-09-10T15:25:44.212Z,2.90
2018-09-10T15:28:12.690Z,2.67
2018-09-10T15:30:41.129Z,3.00
2018-09-10T15:33:09.693Z,3.47
2018-09-10T15:35:38.251Z,3.07
2018-09-10T15:38:06.846Z,3.50
2018-09-10T15:40:35.474Z,2.97
2018-09-10T15:43:04.018Z,3.70
2018-09-10T15:45:32.637Z,3.60
2018-09-10T15:48:01.243Z,3.30
2018-09-10T15:50:29.790Z,3.47
2018-09-10T15:52:58.242Z,2.83
2018-09-10T15:55:26.686Z,2.80
2018-09-10T15:57:55.236Z,3.23
2018-09-10T16:00:23.797Z,3.13
2018-09-10T16:02:52.352Z,3.10
2018-09-10T16:05:30.031Z,2.77
2018-09-10T16:07:59.575Z,3.23
2018-09-10T16:10:28.063Z,3.53
2018-09-10T16:12:56.519Z,3.47
2018-09-10T16:15:25.180Z,2.87
2018-09-10T16:17:54.034Z,2.80
2018-09-10T16:20:22.590Z,2.90
2018-09-10T16:22:51.067Z,2.77
2018-09-10T16:25:19.593Z,3.20
2018-09-10T16:28:25.576Z,2.80
2018-09-10T16:30:54.107Z,2.90
2018-09-10T16:33:22.575Z,2.43
2018-09-10T16:35:51.113Z,2.50
2018-09-10T16:38:19.689Z,3.07
2018-09-10T16:40:48.959Z,2.63
2018-09-10T16:43:17.461Z,2.80
2018-09-10T16:45:46.011Z,3.00
2018-09-10T16:48:14.512Z,2.70
2018-09-10T16:50:43.131Z,3.23
2018-09-10T16:53:11.773Z,2.70
2018-09-10T16:55:40.369Z,2.60
2018-09-10T16:58:08.923Z,3.27
2018-09-10T17:00:37.518Z,3.10
2018-09-10T17:03:06.043Z,3.07
2018-09-10T17:05:34.601Z,3.00
2018-09-10T17:08:03.176Z,3.13
2018-09-10T17:10:31.790Z,3.23
2018-09-10T17:13:00.334Z,3.33
2018-09-10T17:15:28.838Z,3.67
2018-09-10T17:17:57.296Z,3.33
2018-09-10T17:20:25.794Z,3.43
2018-09-10T17:22:54.287Z,3.13
2018-09-10T17:25:22.747Z,2.80
2018-09-10T17:27:51.372Z,2.83
2018-09-10T17:30:19.985Z,3.03
2018-09-10T17:32:48.504Z,3.33
2018-09-10T17:35:17.090Z,2.97
2018-09-10T17:37:45.767Z,3.43
2018-09-10T17:40:14.473Z,3.57
2018-09-10T17:42:43.045Z,3.63
2018-09-10T17:45:11.579Z,2.87
2018-09-10T17:47:40.180Z,3.60
2018-09-10T17:50:08.739Z,5.93
2018-09-10T17:52:37.201Z,6.03
2018-09-10T17:55:05.909Z,5.40
2018-09-10T17:57:34.466Z,7.60
2018-09-10T18:00:11.510Z,4.70
2018-09-10T18:02:40.062Z,4.63
2018-09-10T18:05:08.762Z,4.87
2018-09-10T18:07:37.301Z,4.70
2018-09-10T18:10:05.863Z,4.03
2018-09-10T18:12:34.463Z,4.70
2018-09-10T18:15:03.068Z,3.80
2018-09-10T18:17:43.465Z,4.07
2018-09-10T18:20:12.006Z,4.07
2018-09-10T18:22:40.512Z,3.30
2018-09-10T18:25:09.118Z,4.07
2018-09-10T18:27:37.592Z,3.53
2018-09-10T18:30:06.266Z,3.67
2018-09-10T18:32:34.882Z,4.23
2018-09-10T18:35:03.569Z,3.50
2018-09-10T18:37:32.071Z,3.43
2018-09-10T18:40:00.823Z,3.40
2018-09-10T18:42:29.501Z,4.40
2018-09-10T18:44:58.071Z,3.40
2018-09-10T18:47:26.622Z,3.10
2018-09-10T18:49:55.402Z,3.13
2018-09-10T18:55:46.599Z,3.37
2018-09-10T18:58:16.271Z,4.07
2018-09-10T19:00:45.020Z,4.13
2018-09-10T19:03:13.510Z,4.03
2018-09-10T19:05:41.966Z,3.87
2018-09-10T19:08:10.488Z,3.80
2018-09-10T19:10:39.094Z,4.17
2018-09-10T19:13:07.591Z,4.47
2018-09-10T19:15:36.193Z,4.50
2018-09-10T19:18:04.838Z,5.10
2018-09-10T19:20:33.517Z,4.90
2018-09-10T19:23:02.188Z,4.73
2018-09-10T19:25:30.851Z,5.17
2018-09-10T19:27:59.314Z,4.77
2018-09-10T19:30:28.131Z,6.03
2018-09-10T19:32:56.649Z,5.23
2018-09-10T19:35:25.300Z,5.03
2018-09-10T19:37:53.789Z,5.83
2018-09-10T19:40:22.451Z,7.80
2018-09-10T19:42:51.085Z,6.53
2018-09-10T19:45:19.657Z,7.07
2018-09-10T19:47:48.228Z,6.90
2018-09-10T19:50:16.798Z,6.73
2018-09-10T19:52:45.404Z,6.43
2018-09-10T19:55:14.034Z,6.97
2018-09-10T19:57:42.565Z,8.37
2018-09-10T20:00:11.181Z,7.60
2018-09-10T20:02:41.427Z,7.20
2018-09-10T20:05:09.997Z,8.27
2018-09-10T20:07:38.640Z,8.67
2018-09-10T20:10:07.790Z,7.60
2018-09-10T20:12:36.362Z,9.07
2018-09-10T20:15:05.075Z,9.33
2018-09-10T20:17:33.613Z,10.83
2018-09-10T20:20:02.209Z,10.73
2018-09-10T20:22:30.705Z,11.27
2018-09-10T20:24:59.363Z,10.00
2018-09-10T20:27:28.008Z,11.17
2018-09-10T20:29:56.469Z,12.30
2018-09-10T20:32:25.018Z,11.23
2018-09-10T20:34:53.558Z,11.30
2018-09-10T20:37:22.052Z,13.10
2018-09-10T20:39:50.872Z,13.17
2018-09-10T20:42:19.446Z,11.87
2018-09-10T20:44:47.927Z,12.30
2018-09-10T20:47:16.501Z,12.13
2018-09-10T20:49:45.213Z,12.63
2018-09-10T20:52:13.932Z,14.70
2018-09-10T20:54:42.362Z,12.97
2018-09-10T20:57:10.844Z,12.77
2018-09-10T20:59:39.376Z,13.57
2018-09-10T21:02:08.560Z,12.10
2018-09-10T21:04:37.501Z,11.13
2018-09-10T21:07:06.055Z,11.50
2018-09-10T21:09:34.521Z,12.67
2018-09-10T21:12:03.857Z,14.57
2018-09-10T21:14:32.378Z,11.50
2018-09-10T21:17:00.926Z,11.97
2018-09-10T21:19:29.435Z,12.73
2018-09-10T21:21:57.888Z,11.63
2018-09-10T21:24:26.393Z,14.50
2018-09-10T21:26:54.865Z,13.60
2018-09-10T21:29:23.357Z,12.20
2018-09-10T21:31:51.874Z,13.97
2018-09-10T21:34:20.322Z,13.50
2018-09-10T21:36:48.780Z,14.60
2018-09-10T21:39:17.476Z,13.33
2018-09-10T21:41:46.639Z,11.87
2018-09-10T21:44:15.134Z,12.50
2018-09-10T21:46:43.613Z,12.63
2018-09-10T21:49:12.071Z,12.83
2018-09-10T21:51:40.535Z,13.20
2018-09-10T21:54:09.280Z,12.13
2018-09-10T21:56:39.265Z,13.80
2018-09-10T21:59:07.830Z,13.00
2018-09-10T22:01:36.314Z,11.37
2018-09-10T22:04:04.798Z,12.63
2018-09-10T22:06:33.562Z,13.83
2018-09-10T22:09:02.031Z,14.33
2018-09-10T22:11:30.561Z,12.33
2018-09-10T22:13:59.032Z,15.50
2018-09-10T22:16:27.479Z,13.33
2018-09-10T22:18:56.041Z,12.30
2018-09-10T22:21:24.622Z,14.60
2018-09-10T22:23:53.074Z,13.13
2018-09-10T22:26:21.540Z,14.67
2018-09-10T22:28:50.000Z,14.80
2018-09-10T22:31:18.493Z,16.20
2018-09-10T22:33:46.953Z,16.20
2018-09-10T22:36:15.422Z,14.90
2018-09-10T22:38:43.901Z,14.23
2018-09-10T22:41:12.572Z,16.23
2018-09-10T22:43:41.017Z,15.23
2018-09-10T22:46:09.585Z,15.57
2018-09-10T22:48:38.058Z,16.40
2018-09-10T22:51:06.819Z,15.47
2018-09-10T22:53:35.287Z,15.60
2018-09-10T22:56:03.744Z,16.23
2018-09-10T22:58:32.200Z,14.97
2018-09-10T23:01:00.625Z,15.70
2018-09-10T23:03:29.214Z,14.97
2018-09-10T23:05:57.722Z,13.77
2018-09-10T23:08:26.209Z,13.87
2018-09-10T23:10:54.691Z,12.30
2018-09-10T23:13:23.181Z,14.53
2018-09-10T23:15:51.697Z,11.83
2018-09-10T23:18:20.728Z,11.23
2018-09-10T23:20:49.218Z,10.73
2018-09-10T23:23:17.665Z,10.37
2018-09-10T23:25:46.202Z,10.93
2018-09-10T23:28:14.720Z,9.93
2018-09-10T23:30:43.165Z,10.63
2018-09-10T23:33:36.510Z,9.70
2018-09-10T23:36:05.213Z,9.00
2018-09-10T23:38:33.697Z,9.53
2018-09-10T23:41:02.155Z,8.53
2018-09-10T23:43:30.645Z,7.83
2018-09-10T23:45:59.166Z,7.30
2018-09-10T23:48:27.720Z,7.30
2018-09-10T23:50:56.514Z,7.43
2018-09-10T23:53:24.990Z,6.63
2018-09-10T23:55:53.981Z,6.87
2018-09-10T23:58:22.455Z,5.70
